Time;durP1;ratioP1;P1;durP2;ratioP2;P2;SDS_P1;SDS_P2;PMS_P1;PMS_P2;Temp;Humidity;BMP_temperature;BMP_pressure;BME280_temperature;BME280_humidity;BME280_pressure;Samples;Min_cycle;Max_cycle;Signal;HPM_P1;HPM_P2
2021/09/18 00:02:00;;;;;;;14.77;13.37;;;13.70;99.90;;;;;;6126494;23;20422;-90
2021/09/18 00:04:27;;;;;;;14.33;13.03;;;13.60;99.90;;;;;;6126132;23;20411;-88
2021/09/18 00:06:53;;;;;;;15.30;13.90;;;13.70;99.90;;;;;;6126427;23;20431;-90
2021/09/18 00:09:20;;;;;;;15.07;13.47;;;13.70;99.90;;;;;;6126801;23;20471;-90
2021/09/18 00:11:48;;;;;;;15.37;13.83;;;13.60;99.90;;;;;;6130917;23;20409;-89
2021/09/18 05:02:54;;;;;;;16.30;14.60;;;11.70;99.90;;;;;;6133244;23;20454;-82
2021/09/18 05:05:30;;;;;;;17.50;15.70;;;11.70;99.90;;;;;;6112832;23;20411;-82
2021/09/18 05:07:57;;;;;;;15.03;13.63;;;11.80;99.90;;;;;;6130103;23;20419;-81
2021/09/18 05:10:24;;;;;;;14.10;12.70;;;11.80;99.90;;;;;;6129487;23;20411;-82
2021/09/18 05:12:51;;;;;;;14.40;12.90;;;11.70;99.90;;;;;;6139940;23;20479;-84
2021/09/18 05:15:18;;;;;;;14.83;13.50;;;11.70;99.90;;;;;;6133403;23;20441;-82
2021/09/18 05:17:44;;;;;;;15.13;13.73;;;11.70;99.90;;;;;;6136543;23;20458;-84
2021/09/18 05:20:12;;;;;;;14.60;13.17;;;11.70;99.90;;;;;;6141076;23;20475;-82
2021/09/18 05:22:40;;;;;;;14.33;12.93;;;11.70;99.90;;;;;;6138531;23;20403;-82
2021/09/18 05:25:08;;;;;;;14.03;12.77;;;11.70;99.90;;;;;;6143051;23;20463;-81
2021/09/18 05:27:34;;;;;;;13.10;11.70;;;11.70;99.90;;;;;;6145471;23;20557;-80
2021/09/18 05:30:02;;;;;;;14.83;13.20;;;11.70;99.90;;;;;;6145053;23;20411;-82
2021/09/18 05:32:28;;;;;;;14.87;13.40;;;11.80;99.90;;;;;;6135101;23;20422;-82
2021/09/18 05:34:55;;;;;;;14.23;12.87;;;11.80;99.90;;;;;;6132929;23;20440;-82
2021/09/18 05:37:24;;;;;;;14.07;12.67;;;11.80;99.90;;;;;;6133682;23;20436;-89
2021/09/18 05:39:55;;;;;;;14.27;12.97;;;11.80;99.90;;;;;;6133044;23;20437;-89
2021/09/18 05:45:06;;;;;;;13.67;12.37;;;11.80;99.90;;;;;;6130393;23;20450;-87
2021/09/18 05:47:37;;;;;;;14.60;13.13;;;11.70;99.90;;;;;;6132363;23;20778;-88
2021/09/18 05:50:05;;;;;;;14.80;12.43;;;11.70;99.90;;;;;;6132169;23;20467;-88
2021/09/18 05:52:33;;;;;;;14.17;12.50;;;11.80;99.90;;;;;;6132597;23;20399;-88
2021/09/18 05:55:03;;;;;;;13.23;11.93;;;11.80;99.90;;;;;;6132334;23;20436;-89
2021/09/18 05:57:31;;;;;;;12.90;11.57;;;11.80;99.90;;;;;;6133804;23;20498;-88
2021/09/18 06:00:01;;;;;;;13.93;12.60;;;11.80;99.90;;;;;;6135069;23;20396;-89
2021/09/18 06:02:30;;;;;;;14.40;12.90;;;11.90;99.90;;;;;;6134503;23;20408;-88
2021/09/18 06:05:02;;;;;;;13.60;12.30;;;11.90;99.90;;;;;;6137461;23;20415;-88
2021/09/18 06:07:30;;;;;;;15.03;12.63;;;11.90;99.90;;;;;;6150463;23;20450;-88
2021/09/18 06:10:02;;;;;;;15.13;13.43;;;12.00;99.90;;;;;;6152250;23;20396;-87
2021/09/18 06:12:31;;;;;;;13.30;11.90;;;12.00;99.90;;;;;;6137325;23;20424;-88
2021/09/18 06:15:02;;;;;;;14.30;12.17;;;12.10;99.90;;;;;;6136461;23;20444;-88
2021/09/18 06:17:29;;;;;;;14.60;13.03;;;12.10;99.90;;;;;;6142773;23;20439;-89
2021/09/18 06:19:59;;;;;;;14.23;12.90;;;12.10;99.90;;;;;;6152381;23;20423;-88
2021/09/18 06:22:30;;;;;;;13.73;12.33;;;12.10;99.90;;;;;;6137413;23;20400;-89
2021/09/18 06:24:57;;;;;;;14.00;12.70;;;12.20;99.90;;;;;;6134556;23;20410;-88
2021/09/18 06:27:26;;;;;;;14.77;13.47;;;12.20;99.90;;;;;;6135363;23;20776;-88
2021/09/18 06:29:57;;;;;;;19.17;14.47;;;12.20;99.90;;;;;;6133838;23;20416;-88
2021/09/18 06:32:28;;;;;;;13.87;12.57;;;12.30;99.90;;;;;;6133756;23;20407;-89
2021/09/18 06:34:57;;;;;;;14.40;12.90;;;12.30;99.90;;;;;;6138235;23;20469;-88
2021/09/18 06:40:09;;;;;;;14.67;12.83;;;12.50;99.90;;;;;;6132911;23;20457;-87
2021/09/18 06:42:38;;;;;;;15.70;14.17;;;12.60;99.90;;;;;;6138149;23;20391;-88
2021/09/18 06:45:16;;;;;;;14.60;13.10;;;12.60;99.90;;;;;;6135524;23;20887;-88
2021/09/18 06:47:44;;;;;;;16.23;14.70;;;12.70;99.90;;;;;;6134548;23;20462;-88
2021/09/18 06:50:12;;;;;;;15.53;14.03;;;12.80;99.90;;;;;;6136029;23;20914;-88
2021/09/18 06:52:40;;;;;;;14.43;13.03;;;12.80;99.90;;;;;;6140540;23;20418;-88
2021/09/18 06:55:10;;;;;;;13.83;12.53;;;12.90;99.90;;;;;;6136295;23;20495;-88
2021/09/18 06:57:38;;;;;;;15.30;13.70;;;13.00;99.90;;;;;;6149380;23;20410;-89
2021/09/18 07:00:09;;;;;;;16.30;14.60;;;13.00;99.90;;;;;;6154973;23;20426;-86
2021/09/18 07:02:36;;;;;;;15.70;14.17;;;13.10;99.90;;;;;;6155699;23;20414;-88
2021/09/18 07:05:07;;;;;;;14.50;13.10;;;13.10;99.90;;;;;;6155726;23;20434;-88
2021/09/18 07:07:36;;;;;;;17.20;14.10;;;13.10;99.90;;;;;;6154865;23;20424;-88
2021/09/18 07:10:04;;;;;;;15.27;13.67;;;13.10;99.90;;;;;;6141781;23;20448;-88
2021/09/18 07:12:34;;;;;;;15.37;13.80;;;13.20;99.90;;;;;;6148325;23;20420;-88
2021/09/18 07:15:01;;;;;;;15.83;14.00;;;13.20;99.90;;;;;;6154275;23;20443;-88
2021/09/18 07:17:37;;;;;;;21.00;13.40;;;13.20;99.90;;;;;;6154399;23;20507;-88
2021/09/18 07:20:06;;;;;;;14.87;13.43;;;13.30;99.90;;;;;;6154231;23;20480;-88
2021/09/18 07:22:36;;;;;;;13.67;12.37;;;13.40;99.90;;;;;;6148155;23;20433;-88
2021/09/18 07:25:08;;;;;;;15.53;14.00;;;13.70;99.90;;;;;;6147495;23;20401;-87
2021/09/18 07:27:37;;;;;;;19.03;16.07;;;13.80;99.90;;;;;;6111160;23;20519;-88
2021/09/18 07:30:07;;;;;;;14.77;13.33;;;13.90;99.90;;;;;;6134428;23;20496;-88
2021/09/18 07:32:37;;;;;;;14.60;13.30;;;14.10;99.90;;;;;;6133345;23;20407;-88
2021/09/18 08:45:08;;;;;;;;;;;;;;;;;;;;;
2021/09/18 08:51:52;;;;;;;12.33;11.33;;;18.40;99.90;;;;;;6011277;23;20421;-83
2021/09/18 08:54:36;;;;;;;;;;;;;;;;;;;;;
2021/09/18 08:57:03;;;;;;;11.53;10.63;;;18.00;99.90;;;;;;6062452;23;20417;-82
2021/09/18 08:59:30;;;;;;;11.57;10.50;;;18.20;99.90;;;;;;6144170;23;20417;-84
2021/09/18 09:02:13;;;;;;;11.40;10.30;;;18.40;99.90;;;;;;6143191;23;20408;-81
2021/09/18 09:04:41;;;;;;;10.93;10.03;;;19.40;99.90;;;;;;6138468;23;20919;-82
2021/09/18 09:07:08;;;;;;;12.37;9.60;;;20.90;99.90;;;;;;6135608;23;20412;-82
2021/09/18 09:09:55;;;;;;;8.40;7.70;;;23.10;96.70;;;;;;6135955;23;20412;-84
2021/09/18 09:12:30;;;;;;;8.60;7.40;;;25.80;90.80;;;;;;6140929;23;20473;-82
2021/09/18 09:14:58;;;;;;;8.73;8.03;;;26.70;81.90;;;;;;6141691;23;20449;-83
2021/09/18 09:17:52;;;;;;;;;;;;;;;;;;;;;
2021/09/18 09:21:06;;;;;;;7.23;6.73;;;30.90;67.00;;;;;;6122119;23;20439;-82
2021/09/18 09:31:04;;;;;;;;;;;;;;;;;;;;;
2021/09/18 09:41:02;;;;;;;;;;;;;;;;;;;;;
2021/09/18 09:47:48;;;;;;;;;;;;;;;;;;;;;
2021/09/18 09:50:58;;;;;;;;;;;;;;;;;;;;;
2021/09/18 10:00:54;;;;;;;5.53;5.03;;;31.20;52.60;;;;;;5952738;24;20416;-81
2021/09/18 10:03:23;;;;;;;5.40;4.90;;;32.70;51.60;;;;;;6035975;23;20410;-82
2021/09/18 10:05:51;;;;;;;4.23;3.83;;;32.60;50.10;;;;;;6077183;23;20431;-82
2021/09/18 10:25:32;;;;;;;;;;;;;;;;;;;;;
2021/09/18 10:35:41;;;;;;;4.27;3.87;;;37.90;41.20;;;;;;6007390;23;20514;-82
2021/09/18 10:44:45;;;;;;;3.90;3.60;;;37.30;41.20;;;;;;5959009;23;20402;-84
2021/09/18 10:47:32;;;;;;;3.83;3.57;;;37.40;40.40;;;;;;6040032;23;22038;-84
2021/09/18 10:49:59;;;;;;;2.50;2.30;;;38.30;38.30;;;;;;6039689;23;21066;-84
2021/09/18 10:52:29;;;;;;;2.30;2.20;;;38.50;35.50;;;;;;6113964;23;20903;-84
2021/09/18 10:55:14;;;;;;;3.00;2.30;;;38.60;35.30;;;;;;6129461;23;20482;-85
2021/09/18 10:58:03;;;;;;;2.43;2.23;;;39.60;34.60;;;;;;6130170;23;20427;-84
2021/09/18 11:00:44;;;;;;;2.53;2.30;;;39.50;33.80;;;;;;6152906;23;20396;-82
2021/09/18 11:03:11;;;;;;;2.83;2.40;;;38.20;34.40;;;;;;6138462;23;20400;-83
2021/09/18 11:05:46;;;;;;;2.63;2.43;;;37.00;35.30;;;;;;6129396;23;20400;-82
2021/09/18 11:08:35;;;;;;;3.10;2.90;;;36.20;37.30;;;;;;6135621;23;20431;-83
2021/09/18 11:11:09;;;;;;;2.23;2.00;;;36.90;37.00;;;;;;6129925;23;20399;-84
2021/09/18 11:13:38;;;;;;;3.57;2.80;;;38.40;35.70;;;;;;6129087;23;20408;-84
2021/09/18 11:16:20;;;;;;;8.17;2.80;;;40.00;32.70;;;;;;6130712;23;20427;-83
2021/09/18 11:18:53;;;;;;;3.10;2.80;;;38.90;33.70;;;;;;6130616;23;20432;-83
2021/09/18 11:21:23;;;;;;;2.40;2.20;;;37.40;34.20;;;;;;6130044;23;20403;-83
2021/09/18 11:23:52;;;;;;;3.53;3.23;;;36.30;35.00;;;;;;6129271;23;20480;-85
2021/09/18 11:26:47;;;;;;;2.20;2.10;;;35.60;35.90;;;;;;6130059;23;20416;-90
2021/09/18 11:29:21;;;;;;;3.07;2.87;;;36.30;36.60;;;;;;6125761;23;20502;-90
2021/09/18 11:32:13;;;;;;;2.93;2.60;;;37.10;35.30;;;;;;6129648;23;20424;-89
2021/09/18 11:34:43;;;;;;;2.00;1.90;;;37.50;34.20;;;;;;6129656;23;20400;-89
2021/09/18 11:37:13;;;;;;;2.83;2.20;;;36.60;34.70;;;;;;6131313;23;20444;-89
2021/09/18 11:39:50;;;;;;;3.20;2.87;;;36.60;34.30;;;;;;6128076;23;20470;-90
2021/09/18 11:42:20;;;;;;;3.07;2.87;;;36.00;34.50;;;;;;6127131;23;20396;-89
2021/09/18 11:44:48;;;;;;;3.10;2.83;;;35.90;36.00;;;;;;6127884;23;20399;-89
2021/09/18 11:47:22;;;;;;;3.37;3.07;;;37.20;35.90;;;;;;6127155;23;20424;-90
2021/09/18 11:49:49;;;;;;;4.00;3.70;;;38.50;34.40;;;;;;6129571;23;20403;-89
2021/09/18 11:52:15;;;;;;;3.93;3.10;;;38.90;33.40;;;;;;6135967;23;20407;-89
2021/09/18 11:54:42;;;;;;;4.50;4.20;;;39.60;32.30;;;;;;6133360;23;20416;-89
2021/09/18 11:57:13;;;;;;;3.83;3.60;;;38.80;32.90;;;;;;6137069;23;20432;-90
2021/09/18 11:59:40;;;;;;;4.83;4.43;;;39.10;33.40;;;;;;6132388;23;20407;-89
2021/09/18 12:02:07;;;;;;;3.73;3.43;;;39.20;33.40;;;;;;6127798;23;20400;-89
2021/09/18 12:04:43;;;;;;;4.03;3.27;;;40.00;33.10;;;;;;6141862;23;20408;-89
2021/09/18 12:07:13;;;;;;;3.50;3.20;;;40.40;33.00;;;;;;6143328;23;20862;-89
2021/09/18 12:09:41;;;;;;;4.07;3.63;;;40.70;31.90;;;;;;6131337;23;20432;-89
2021/09/18 12:12:08;;;;;;;3.50;3.30;;;40.50;31.90;;;;;;6128678;23;20495;-90
2021/09/18 12:14:37;;;;;;;8.60;4.00;;;40.10;32.40;;;;;;6128389;23;20402;-89
2021/09/18 12:17:15;;;;;;;4.00;3.60;;;38.30;33.80;;;;;;6127592;23;20439;-89
2021/09/18 12:19:44;;;;;;;3.90;3.60;;;38.80;33.50;;;;;;6127370;23;20428;-89
2021/09/18 12:22:12;;;;;;;3.70;3.40;;;39.70;32.10;;;;;;6127707;23;20742;-89
2021/09/18 12:24:41;;;;;;;3.90;3.60;;;39.80;32.00;;;;;;6127304;23;20502;-89
2021/09/18 12:27:25;;;;;;;5.80;5.27;;;39.30;32.00;;;;;;6133598;23;20411;-89
2021/09/18 12:29:57;;;;;;;3.27;2.97;;;39.30;33.20;;;;;;6129192;23;20392;-89
2021/09/18 12:32:24;;;;;;;3.77;3.47;;;39.70;32.60;;;;;;6126964;23;20404;-89
2021/09/18 12:34:55;;;;;;;4.80;4.40;;;39.00;32.70;;;;;;6125220;23;20415;-88
2021/09/18 12:37:30;;;;;;;4.07;3.67;;;39.40;33.10;;;;;;6125064;23;20448;-89
2021/09/18 12:40:13;;;;;;;4.23;3.67;;;39.40;32.80;;;;;;6127663;23;20466;-89
2021/09/18 12:42:40;;;;;;;4.10;3.90;;;39.20;31.70;;;;;;6133418;23;20889;-89
2021/09/18 12:45:26;;;;;;;4.30;3.90;;;39.60;32.00;;;;;;6132812;23;20410;-89
2021/09/18 12:48:26;;;;;;;5.87;4.87;;;39.20;31.80;;;;;;6129039;23;20934;-89
2021/09/18 12:51:04;;;;;;;4.10;3.80;;;38.50;32.30;;;;;;6109296;23;20887;-89
2021/09/18 12:53:35;;;;;;;3.90;3.60;;;37.50;33.90;;;;;;6128214;23;20431;-89
2021/09/18 12:56:10;;;;;;;4.60;4.23;;;38.10;34.00;;;;;;6126968;23;20447;-89
2021/09/18 12:58:56;;;;;;;3.93;3.63;;;38.40;33.20;;;;;;6123484;23;20451;-93
2021/09/18 13:04:49;;;;;;;3.70;3.40;;;39.10;32.70;;;;;;6079044;23;20438;-91
2021/09/18 13:07:24;;;;;;;4.30;4.00;;;38.30;33.50;;;;;;6127217;23;20408;-90
2021/09/18 13:09:57;;;;;;;4.57;4.20;;;38.90;33.80;;;;;;6143175;23;20407;-92
2021/09/18 13:12:24;;;;;;;3.83;3.53;;;37.90;33.40;;;;;;6129750;23;20396;-91
2021/09/18 13:14:53;;;;;;;4.20;3.90;;;38.40;33.70;;;;;;6129434;23;20739;-90
2021/09/18 13:17:22;;;;;;;3.50;3.30;;;37.60;33.40;;;;;;6129473;23;20439;-91
2021/09/18 13:19:51;;;;;;;5.07;4.03;;;36.50;34.70;;;;;;6130049;23;20448;-91
2021/09/18 13:22:21;;;;;;;4.43;4.13;;;35.60;35.90;;;;;;6152471;23;20396;-91
2021/09/18 13:24:50;;;;;;;3.77;3.53;;;34.20;37.20;;;;;;6149360;23;20380;-91
2021/09/18 13:27:18;;;;;;;4.63;4.23;;;32.60;39.90;;;;;;6137195;23;20407;-91
2021/09/18 13:29:44;;;;;;;4.17;3.87;;;31.60;42.00;;;;;;6152117;23;20487;-90
2021/09/18 13:32:11;;;;;;;3.37;3.17;;;30.60;42.90;;;;;;6153372;23;20428;-89
2021/09/18 13:34:38;;;;;;;3.97;3.67;;;30.10;43.60;;;;;;6140160;23;20408;-91
2021/09/18 13:37:05;;;;;;;4.93;3.87;;;30.10;43.90;;;;;;6152032;23;20439;-90
2021/09/18 13:39:34;;;;;;;4.70;4.10;;;29.40;44.90;;;;;;6154493;23;20403;-89
2021/09/18 13:42:01;;;;;;;4.60;4.20;;;28.40;47.20;;;;;;6153006;23;20392;-91
2021/09/18 13:44:28;;;;;;;4.87;4.47;;;27.90;49.90;;;;;;6154296;23;20511;-89
2021/09/18 13:46:55;;;;;;;9.00;4.97;;;27.70;51.40;;;;;;6151738;23;20427;-90
2021/09/18 13:49:22;;;;;;;5.13;4.77;;;28.00;51.90;;;;;;6147693;23;20431;-91
2021/09/18 13:51:49;;;;;;;4.87;4.47;;;28.50;51.50;;;;;;6151250;23;20415;-91
2021/09/18 13:54:15;;;;;;;4.93;4.13;;;28.50;50.60;;;;;;6137277;23;20414;-91
2021/09/18 13:56:44;;;;;;;6.43;3.93;;;28.10;51.30;;;;;;6133753;23;20498;-91
2021/09/18 13:59:11;;;;;;;5.40;4.90;;;28.10;51.70;;;;;;6130760;23;20442;-92
2021/09/18 14:01:38;;;;;;;5.03;4.63;;;27.80;52.60;;;;;;6132555;23;20933;-91
2021/09/18 14:04:05;;;;;;;5.37;4.97;;;27.20;53.70;;;;;;6130153;23;20725;-90
2021/09/18 14:06:33;;;;;;;5.40;4.90;;;27.10;54.30;;;;;;6129872;23;20517;-90
2021/09/18 14:09:00;;;;;;;4.70;4.40;;;27.10;54.50;;;;;;6142823;23;20434;-90
2021/09/18 14:11:27;;;;;;;5.00;4.60;;;27.20;54.60;;;;;;6149423;23;20434;-90
2021/09/18 14:13:55;;;;;;;4.87;4.57;;;27.10;54.50;;;;;;6135410;23;20406;-91
2021/09/18 14:16:22;;;;;;;4.80;4.40;;;26.70;54.80;;;;;;6130091;23;20470;-90
2021/09/18 14:18:49;;;;;;;5.07;4.60;;;26.30;56.30;;;;;;6134191;23;20431;-91
2021/09/18 14:21:16;;;;;;;4.80;4.50;;;26.00;56.20;;;;;;6148149;23;20413;-91
2021/09/18 14:23:43;;;;;;;4.77;4.47;;;25.60;57.00;;;;;;6144712;23;20396;-90
2021/09/18 14:26:11;;;;;;;4.70;4.37;;;25.30;57.60;;;;;;6133368;23;20389;-91
2021/09/18 14:28:38;;;;;;;5.93;5.30;;;25.30;58.00;;;;;;6133702;23;20493;-90
2021/09/18 14:31:08;;;;;;;5.50;5.10;;;25.50;57.10;;;;;;6133297;23;20421;-91
2021/09/18 14:33:35;;;;;;;6.63;6.13;;;25.70;57.10;;;;;;6132100;23;20426;-91
2021/09/18 14:36:02;;;;;;;5.40;4.90;;;26.10;56.20;;;;;;6133321;23;20408;-90
2021/09/18 14:38:29;;;;;;;5.83;5.43;;;26.30;56.10;;;;;;6133235;23;20962;-91
2021/09/18 14:40:55;;;;;;;5.90;5.40;;;26.30;55.60;;;;;;6132486;23;20408;-91
2021/09/18 14:43:22;;;;;;;7.83;4.20;;;26.30;55.30;;;;;;6131014;23;20403;-91
2021/09/18 14:45:49;;;;;;;4.83;4.10;;;26.40;54.80;;;;;;6132191;23;20800;-90
2021/09/18 14:48:17;;;;;;;7.40;6.70;;;26.50;54.20;;;;;;6132513;23;20960;-89
2021/09/18 14:50:44;;;;;;;6.43;5.93;;;26.70;54.00;;;;;;6129233;23;20415;-90
2021/09/18 14:53:11;;;;;;;4.20;3.90;;;26.80;53.30;;;;;;6121538;23;21160;-90
2021/09/18 14:55:38;;;;;;;4.73;4.33;;;26.60;53.00;;;;;;6132364;23;20409;-91
2021/09/18 14:58:06;;;;;;;3.80;3.50;;;26.50;52.70;;;;;;6133031;23;20439;-90
2021/09/18 15:00:32;;;;;;;3.90;3.50;;;26.30;52.40;;;;;;6142655;23;20408;-90
2021/09/18 15:02:59;;;;;;;5.50;3.90;;;26.30;52.40;;;;;;6131784;23;20404;-90
2021/09/18 15:05:27;;;;;;;5.03;4.50;;;26.30;52.70;;;;;;6129977;23;20414;-91
2021/09/18 15:07:54;;;;;;;5.93;4.80;;;26.30;53.20;;;;;;6130304;23;20784;-91
2021/09/18 15:10:36;;;;;;;4.50;4.10;;;26.20;53.00;;;;;;6129385;23;20396;-91
2021/09/18 15:13:02;;;;;;;5.23;4.80;;;26.30;53.50;;;;;;6131004;23;20395;-90
2021/09/18 15:15:33;;;;;;;4.20;3.90;;;26.50;52.60;;;;;;6148306;23;20412;-90
2021/09/18 15:17:59;;;;;;;4.97;4.67;;;27.10;51.10;;;;;;6137377;23;20459;-90
2021/09/18 15:20:28;;;;;;;4.47;4.17;;;27.70;50.20;;;;;;6130842;23;20406;-90
2021/09/18 15:23:02;;;;;;;4.23;3.93;;;28.30;49.30;;;;;;6131464;23;20404;-90
2021/09/18 15:25:28;;;;;;;5.17;4.27;;;28.30;49.00;;;;;;6150465;23;20526;-91
2021/09/18 15:27:56;;;;;;;4.07;3.77;;;27.90;49.40;;;;;;6135641;23;20917;-90
2021/09/18 15:30:23;;;;;;;5.07;4.67;;;27.80;49.40;;;;;;6138368;23;20392;-87
2021/09/18 15:32:49;;;;;;;4.20;3.90;;;28.00;49.30;;;;;;6154498;23;20458;-89
2021/09/18 15:35:23;;;;;;;4.00;3.70;;;27.90;48.50;;;;;;6137434;23;20405;-90
2021/09/18 15:37:51;;;;;;;4.63;4.23;;;27.60;49.20;;;;;;6133282;23;20423;-88
2021/09/18 15:40:18;;;;;;;4.90;4.57;;;27.80;49.40;;;;;;6141685;23;20416;-90
2021/09/18 15:42:46;;;;;;;4.67;4.27;;;27.90;49.60;;;;;;6131295;23;20409;-89
2021/09/18 15:45:13;;;;;;;4.37;4.03;;;27.90;49.90;;;;;;6127413;23;20412;-89
2021/09/18 15:47:40;;;;;;;4.40;4.10;;;27.60;50.40;;;;;;6127146;23;20572;-89
2021/09/18 15:50:09;;;;;;;4.47;4.17;;;27.10;50.60;;;;;;6126805;23;20455;-89
2021/09/18 15:52:36;;;;;;;4.10;3.80;;;26.40;51.50;;;;;;6132618;23;20432;-89
2021/09/18 15:55:05;;;;;;;4.50;3.97;;;25.60;53.00;;;;;;6152071;23;20426;-89
2021/09/18 15:57:32;;;;;;;4.50;4.10;;;25.00;54.30;;;;;;6145137;23;20453;-89
2021/09/18 15:59:59;;;;;;;5.27;4.87;;;24.70;55.80;;;;;;6135825;23;20424;-91
2021/09/18 16:02:25;;;;;;;5.97;4.77;;;24.40;56.50;;;;;;6143429;23;20392;-89
2021/09/18 16:07:33;;;;;;;4.67;4.37;;;23.80;57.10;;;;;;6148235;23;20399;-89
2021/09/18 16:10:00;;;;;;;5.20;4.80;;;23.70;58.10;;;;;;6151924;23;20420;-91
2021/09/18 16:12:29;;;;;;;5.10;4.70;;;23.60;58.40;;;;;;6145493;23;20447;-89
2021/09/18 16:14:56;;;;;;;6.53;4.70;;;23.60;58.70;;;;;;6139513;23;20412;-90
2021/09/18 16:17:22;;;;;;;4.30;4.00;;;23.20;58.30;;;;;;6154414;23;20427;-90
2021/09/18 16:19:49;;;;;;;6.10;4.77;;;23.00;59.20;;;;;;6141095;23;20431;-90
2021/09/18 16:22:19;;;;;;;4.90;4.60;;;22.80;60.00;;;;;;6139792;23;20407;-93
2021/09/18 16:24:45;;;;;;;5.00;4.60;;;22.70;60.00;;;;;;6135469;23;20431;-88
2021/09/18 16:27:12;;;;;;;4.80;4.40;;;22.60;60.60;;;;;;6140209;23;20462;-88
2021/09/18 16:29:41;;;;;;;6.00;5.50;;;22.50;59.90;;;;;;6136302;23;20435;-88
2021/09/18 16:32:16;;;;;;;6.10;5.60;;;22.40;61.50;;;;;;6142942;23;20409;-89
2021/09/18 16:34:43;;;;;;;9.20;8.30;;;22.30;62.00;;;;;;6130666;23;20442;-88
2021/09/18 16:37:11;;;;;;;9.67;8.90;;;22.20;61.80;;;;;;6135697;23;20449;-88
2021/09/18 16:39:38;;;;;;;6.90;6.40;;;22.20;61.90;;;;;;6146066;23;20434;-89
2021/09/18 16:42:05;;;;;;;7.30;6.70;;;22.20;61.00;;;;;;6130128;23;20930;-88
2021/09/18 16:44:32;;;;;;;10.87;10.07;;;22.10;61.10;;;;;;6128585;23;20419;-89
2021/09/18 16:47:00;;;;;;;9.53;8.87;;;22.00;62.80;;;;;;6130509;23;20788;-88
2021/09/18 16:49:29;;;;;;;9.43;8.73;;;21.90;63.30;;;;;;6113112;23;20462;-88
2021/09/18 16:51:56;;;;;;;6.63;6.10;;;21.80;63.20;;;;;;6132356;23;20465;-89
2021/09/18 16:54:23;;;;;;;9.07;8.37;;;21.70;63.90;;;;;;6134383;23;20416;-88
2021/09/18 16:56:50;;;;;;;8.43;7.70;;;21.60;65.00;;;;;;6127836;23;20417;-88
2021/09/18 16:59:16;;;;;;;5.90;5.40;;;21.70;66.50;;;;;;6133746;23;20521;-87
2021/09/18 17:01:43;;;;;;;6.43;6.03;;;21.70;67.10;;;;;;6126832;23;20413;-87
2021/09/18 17:04:11;;;;;;;8.00;7.30;;;21.60;66.80;;;;;;6127937;23;20414;-89
2021/09/18 17:06:38;;;;;;;7.50;6.00;;;21.70;67.40;;;;;;6130561;23;20417;-88
2021/09/18 17:09:05;;;;;;;7.43;6.73;;;21.60;67.80;;;;;;6127496;23;20431;-86
2021/09/18 17:11:32;;;;;;;7.17;6.57;;;21.60;68.30;;;;;;6129130;23;20774;-87
2021/09/18 17:13:58;;;;;;;7.97;6.67;;;21.60;68.80;;;;;;6141437;23;20410;-87
2021/09/18 17:19:13;;;;;;;6.87;6.37;;;21.60;70.00;;;;;;6129339;23;20437;-87
2021/09/18 17:21:40;;;;;;;7.87;7.17;;;21.50;70.50;;;;;;6132484;23;20406;-88
2021/09/18 17:24:07;;;;;;;7.30;6.70;;;21.50;71.40;;;;;;6151459;23;20420;-88
2021/09/18 17:26:34;;;;;;;8.60;7.90;;;21.50;71.70;;;;;;6151832;23;20389;-88
2021/09/18 17:29:00;;;;;;;9.67;8.77;;;21.30;72.40;;;;;;6138851;23;21015;-90
2021/09/18 17:31:27;;;;;;;8.80;8.10;;;21.30;72.80;;;;;;6138527;23;20416;-89
2021/09/18 17:33:54;;;;;;;10.90;8.93;;;21.30;73.40;;;;;;6150935;23;20400;-89
2021/09/18 17:36:22;;;;;;;9.63;8.73;;;21.20;73.80;;;;;;6139827;23;20401;-88
2021/09/18 17:38:49;;;;;;;9.70;8.70;;;21.10;74.30;;;;;;6149575;23;20448;-89
2021/09/18 17:41:16;;;;;;;8.93;8.13;;;21.00;74.50;;;;;;6152636;23;20444;-88
2021/09/18 17:43:52;;;;;;;10.67;9.80;;;21.00;75.00;;;;;;6150979;23;20970;-88
2021/09/18 17:46:18;;;;;;;11.20;10.10;;;20.90;75.30;;;;;;6144111;23;20372;-88
2021/09/18 17:48:47;;;;;;;11.30;10.13;;;20.90;76.00;;;;;;6133851;23;20423;-86
2021/09/18 17:51:27;;;;;;;11.00;10.00;;;20.90;76.50;;;;;;6130264;23;20410;-87
2021/09/18 17:54:10;;;;;;;14.23;12.83;;;20.70;77.20;;;;;;6131291;23;20400;-88
2021/09/18 17:57:20;;;;;;;12.77;11.63;;;20.70;78.00;;;;;;6055294;23;20471;-89
2021/09/18 18:06:32;;;;;;;10.80;9.80;;;20.40;80.30;;;;;;6093663;23;20406;-88
2021/09/18 18:12:21;;;;;;;10.73;9.70;;;20.30;82.90;;;;;;6147106;23;20415;-90
2021/09/18 18:14:49;;;;;;;11.37;10.30;;;20.10;84.60;;;;;;6130809;23;20395;-89
2021/09/18 18:17:16;;;;;;;11.70;10.07;;;20.10;85.20;;;;;;6127997;23;20422;-90
2021/09/18 18:19:48;;;;;;;11.30;10.30;;;20.00;85.20;;;;;;6142400;23;20494;-88
2021/09/18 18:22:16;;;;;;;9.87;8.93;;;20.00;86.20;;;;;;6135718;23;20441;-89
2021/09/18 18:24:43;;;;;;;11.00;10.10;;;19.90;86.40;;;;;;6134071;23;20419;-89
2021/09/18 18:27:11;;;;;;;10.57;9.57;;;19.90;87.20;;;;;;6152481;23;20401;-90
2021/09/18 18:29:40;;;;;;;11.23;10.13;;;19.90;87.40;;;;;;6147175;23;20427;-89
2021/09/18 18:42:18;;;;;;;11.80;10.60;;;19.60;90.40;;;;;;6127682;23;20437;-88
2021/09/18 19:05:05;;;;;;;12.17;11.13;;;19.00;93.30;;;;;;6037854;23;20404;-89
2021/09/18 19:11:59;;;;;;;16.00;13.17;;;18.90;94.50;;;;;;5928836;23;20817;-89
2021/09/18 19:22:26;;;;;;;;;;;;;;;;;;;;;
2021/09/18 20:05:17;;;;;;;;;;;;;;;;;;;;;
2021/09/18 20:11:53;;;;;;;18.07;16.37;;;17.80;99.90;;;;;;6134441;23;20430;-89
2021/09/18 20:14:40;;;;;;;18.37;16.60;;;17.70;99.90;;;;;;6132416;23;20407;-90
2021/09/18 20:31:53;;;;;;;17.43;15.80;;;17.60;99.90;;;;;;5897052;23;20489;-88
2021/09/18 20:35:05;;;;;;;19.10;17.30;;;17.60;99.90;;;;;;6011325;23;20430;-88
2021/09/18 20:46:57;;;;;;;17.63;15.93;;;17.50;99.90;;;;;;6108543;23;20399;-89
2021/09/18 20:52:10;;;;;;;15.50;14.10;;;17.50;99.90;;;;;;6131819;23;20465;-88
2021/09/18 21:12:11;;;;;;;18.43;16.57;;;17.10;99.90;;;;;;5922800;24;20393;-88
2021/09/18 21:14:38;;;;;;;15.87;14.43;;;17.10;99.90;;;;;;5937097;24;20441;-90
2021/09/18 21:20:28;;;;;;;16.60;15.20;;;17.00;99.90;;;;;;5991235;23;20421;-89
2021/09/18 21:26:16;;;;;;;17.27;15.77;;;17.00;99.90;;;;;;5965837;24;20435;-89
2021/09/18 22:18:09;;;;;;;13.53;12.53;;;16.60;99.90;;;;;;6075226;23;20420;-89
2021/09/18 22:25:13;;;;;;;14.67;13.37;;;16.50;99.90;;;;;;6126465;23;20431;-89
2021/09/18 22:32:07;;;;;;;14.53;13.33;;;16.50;99.90;;;;;;5926943;24;20576;-89
2021/09/18 23:07:08;;;;;;;19.30;17.50;;;15.70;99.90;;;;;;6016550;23;20378;-88
2021/09/18 23:29:54;;;;;;;18.07;16.53;;;15.40;99.90;;;;;;5885101;23;20525;-91
2021/09/18 23:32:22;;;;;;;19.30;17.60;;;15.30;99.90;;;;;;6130432;23;20502;-90
2021/09/18 23:34:48;;;;;;;19.40;17.70;;;15.30;99.90;;;;;;6143095;23;20398;-89
2021/09/18 23:37:17;;;;;;;17.73;16.13;;;15.20;99.90;;;;;;6154998;23;20455;-87
2021/09/18 23:39:44;;;;;;;18.57;16.90;;;15.10;99.90;;;;;;6153945;23;20450;-89
2021/09/18 23:42:11;;;;;;;19.80;18.00;;;15.20;99.90;;;;;;6137345;23;20409;-90
2021/09/18 23:44:38;;;;;;;21.10;19.30;;;15.10;99.90;;;;;;6138916;23;20392;-90
2021/09/18 23:47:06;;;;;;;21.30;19.30;;;15.10;99.90;;;;;;6150429;23;20388;-91
2021/09/18 23:49:33;;;;;;;20.47;18.57;;;15.10;99.90;;;;;;6140621;23;20490;-90
2021/09/18 23:52:00;;;;;;;19.37;17.57;;;15.10;99.90;;;;;;6136496;23;20434;-90
2021/09/18 23:54:27;;;;;;;20.17;18.37;;;15.10;99.90;;;;;;6135232;23;20407;-90
2021/09/18 23:56:53;;;;;;;19.40;17.70;;;15.00;99.90;;;;;;6135508;23;20410;-90
2021/09/18 23:59:20;;;;;;;19.70;17.90;;;14.90;99.90;;;;;;6150443;23;20482;-90
